sensor_id;sensor_type;location;lat;lon;timestamp;P1;P2;P0
58740;PMS7003;44512;53.046;18.604;2023-08-12T00:02:11;14;14;11
58740;PMS7003;44512;53.046;18.604;2023-08-12T00:12:39;19;15;12
58740;PMS7003;44512;53.046;18.604;2023-08-12T00:23:08;16;13;11
58740;PMS7003;44512;53.046;18.604;2023-08-12T00:33:36;16;14;11
58740;PMS7003;44512;53.046;18.604;2023-08-12T00:44:04;18;14;12
58740;PMS7003;44512;53.046;18.604;2023-08-12T00:54:32;21;17;13
58740;PMS7003;44512;53.046;18.604;2023-08-12T01:05:01;17;14;11
58740;PMS7003;44512;53.046;18.604;2023-08-12T01:15:29;22;18;13
58740;PMS7003;44512;53.046;18.604;2023-08-12T01:25:57;19;17;14
58740;PMS7003;44512;53.046;18.604;2023-08-12T01:36:26;19;17;14
58740;PMS7003;44512;53.046;18.604;2023-08-12T01:46:54;16;14;11
58740;PMS7003;44512;53.046;18.604;2023-08-12T01:57:23;18;17;14
58740;PMS7003;44512;53.046;18.604;2023-08-12T02:07:51;20;16;13
58740;PMS7003;44512;53.046;18.604;2023-08-12T02:18:19;23;20;14
58740;PMS7003;44512;53.046;18.604;2023-08-12T02:28:48;21;18;14
58740;PMS7003;44512;53.046;18.604;2023-08-12T02:39:16;23;19;15
58740;PMS7003;44512;53.046;18.604;2023-08-12T02:49:44;25;20;14
58740;PMS7003;44512;53.046;18.604;2023-08-12T03:00:13;23;21;17
58740;PMS7003;44512;53.046;18.604;2023-08-12T03:10:41;23;20;15
58740;PMS7003;44512;53.046;18.604;2023-08-12T03:21:10;22;20;16
58740;PMS7003;44512;53.046;18.604;2023-08-12T03:31:38;24;21;16
58740;PMS7003;44512;53.046;18.604;2023-08-12T03:42:06;28;22;18
58740;PMS7003;44512;53.046;18.604;2023-08-12T03:52:35;23;21;16
58740;PMS7003;44512;53.046;18.604;2023-08-12T04:03:03;23;19;15
58740;PMS7003;44512;53.046;18.604;2023-08-12T04:13:31;24;22;17
58740;PMS7003;44512;53.046;18.604;2023-08-12T04:24:00;25;21;16
58740;PMS7003;44512;53.046;18.604;2023-08-12T04:34:28;25;21;17
58740;PMS7003;44512;53.046;18.604;2023-08-12T04:44:57;24;20;16
58740;PMS7003;44512;53.046;18.604;2023-08-12T04:55:25;27;24;18
58740;PMS7003;44512;53.046;18.604;2023-08-12T05:05:53;40;32;23
58740;PMS7003;44512;53.046;18.604;2023-08-12T05:16:22;33;28;21
58740;PMS7003;44512;53.046;18.604;2023-08-12T05:26:50;28;23;17
58740;PMS7003;44512;53.046;18.604;2023-08-12T05:37:18;24;22;16
58740;PMS7003;44512;53.046;18.604;2023-08-12T05:47:47;16;14;10
58740;PMS7003;44512;53.046;18.604;2023-08-12T05:58:15;13;11;9
58740;PMS7003;44512;53.046;18.604;2023-08-12T06:08:44;10;9;7
58740;PMS7003;44512;53.046;18.604;2023-08-12T06:19:12;9;8;7
58740;PMS7003;44512;53.046;18.604;2023-08-12T06:29:40;8;8;6
58740;PMS7003;44512;53.046;18.604;2023-08-12T06:40:09;8;8;7
58740;PMS7003;44512;53.046;18.604;2023-08-12T06:50:37;12;9;7
58740;PMS7003;44512;53.046;18.604;2023-08-12T07:01:05;9;8;6
58740;PMS7003;44512;53.046;18.604;2023-08-12T07:11:34;10;9;8
58740;PMS7003;44512;53.046;18.604;2023-08-12T07:22:02;8;7;6
58740;PMS7003;44512;53.046;18.604;2023-08-12T07:32:30;9;6;5
58740;PMS7003;44512;53.046;18.604;2023-08-12T07:42:59;8;7;6
58740;PMS7003;44512;53.046;18.604;2023-08-12T07:53:27;7;5;4
58740;PMS7003;44512;53.046;18.604;2023-08-12T08:03:55;7;5;4
58740;PMS7003;44512;53.046;18.604;2023-08-12T08:14:24;5;5;4
58740;PMS7003;44512;53.046;18.604;2023-08-12T08:24:52;5;5;4
58740;PMS7003;44512;53.046;18.604;2023-08-12T08:35:20;4;4;4
58740;PMS7003;44512;53.046;18.604;2023-08-12T08:45:50;5;5;4
58740;PMS7003;44512;53.046;18.604;2023-08-12T08:56:17;4;4;4
58740;PMS7003;44512;53.046;18.604;2023-08-12T09:06:45;3;3;3
58740;PMS7003;44512;53.046;18.604;2023-08-12T09:17:14;5;4;3
58740;PMS7003;44512;53.046;18.604;2023-08-12T09:27:42;5;4;3
58740;PMS7003;44512;53.046;18.604;2023-08-12T09:38:11;6;5;4
58740;PMS7003;44512;53.046;18.604;2023-08-12T09:48:39;5;3;3
58740;PMS7003;44512;53.046;18.604;2023-08-12T09:59:07;4;4;3
58740;PMS7003;44512;53.046;18.604;2023-08-12T10:09:36;3;3;3
58740;PMS7003;44512;53.046;18.604;2023-08-12T10:20:04;4;4;3
58740;PMS7003;44512;53.046;18.604;2023-08-12T10:30:33;4;4;4
58740;PMS7003;44512;53.046;18.604;2023-08-12T10:56:30;7;4;3
58740;PMS7003;44512;53.046;18.604;2023-08-12T11:06:58;3;3;3
58740;PMS7003;44512;53.046;18.604;2023-08-12T11:27:55;5;4;4
58740;PMS7003;44512;53.046;18.604;2023-08-12T11:38:23;4;3;3
58740;PMS7003;44512;53.046;18.604;2023-08-12T11:48:52;4;4;3
58740;PMS7003;44512;53.046;18.604;2023-08-12T11:59:23;4;4;3
58740;PMS7003;44512;53.046;18.604;2023-08-12T12:09:52;4;3;3
58740;PMS7003;44512;53.046;18.604;2023-08-12T12:20:17;4;3;3
58740;PMS7003;44512;53.046;18.604;2023-08-12T12:30:45;5;4;4
58740;PMS7003;44512;53.046;18.604;2023-08-12T12:41:13;3;3;3
58740;PMS7003;44512;53.046;18.604;2023-08-12T12:51:42;4;3;3
58740;PMS7003;44512;53.046;18.604;2023-08-12T13:02:10;4;4;4
58740;PMS7003;44512;53.046;18.604;2023-08-12T13:12:38;4;3;3
58740;PMS7003;44512;53.046;18.604;2023-08-12T13:23:07;4;4;4
58740;PMS7003;44512;53.046;18.604;2023-08-12T13:33:35;3;3;3
58740;PMS7003;44512;53.046;18.604;2023-08-12T13:44:04;4;4;3
58740;PMS7003;44512;53.046;18.604;2023-08-12T13:54:32;3;3;3
58740;PMS7003;44512;53.046;18.604;2023-08-12T14:05:00;4;4;3
58740;PMS7003;44512;53.046;18.604;2023-08-12T14:15:28;5;5;4
58740;PMS7003;44512;53.046;18.604;2023-08-12T14:25:57;5;4;4
58740;PMS7003;44512;53.046;18.604;2023-08-12T14:36:25;3;3;3
58740;PMS7003;44512;53.046;18.604;2023-08-12T14:46:53;5;5;4
58740;PMS7003;44512;53.046;18.604;2023-08-12T14:57:22;4;4;3
58740;PMS7003;44512;53.046;18.604;2023-08-12T15:07:50;4;4;3
58740;PMS7003;44512;53.046;18.604;2023-08-12T15:18:19;4;4;3
58740;PMS7003;44512;53.046;18.604;2023-08-12T15:28:47;5;5;4
58740;PMS7003;44512;53.046;18.604;2023-08-12T15:39:15;4;4;4
58740;PMS7003;44512;53.046;18.604;2023-08-12T15:49:44;3;3;3
58740;PMS7003;44512;53.046;18.604;2023-08-12T16:00:12;4;3;3
58740;PMS7003;44512;53.046;18.604;2023-08-12T16:10:40;4;3;3
58740;PMS7003;44512;53.046;18.604;2023-08-12T16:21:09;4;4;3
58740;PMS7003;44512;53.046;18.604;2023-08-12T16:31:37;4;4;3
58740;PMS7003;44512;53.046;18.604;2023-08-12T16:42:05;5;4;3
58740;PMS7003;44512;53.046;18.604;2023-08-12T16:52:34;7;4;4
58740;PMS7003;44512;53.046;18.604;2023-08-12T17:03:02;4;4;3
58740;PMS7003;44512;53.046;18.604;2023-08-12T17:13:30;5;3;3
58740;PMS7003;44512;53.046;18.604;2023-08-12T17:23:59;4;4;3
58740;PMS7003;44512;53.046;18.604;2023-08-12T17:34:27;5;5;4
58740;PMS7003;44512;53.046;18.604;2023-08-12T17:44:55;5;4;4
58740;PMS7003;44512;53.046;18.604;2023-08-12T17:55:24;5;5;4
58740;PMS7003;44512;53.046;18.604;2023-08-12T18:05:52;5;4;4
58740;PMS7003;44512;53.046;18.604;2023-08-12T18:16:20;9;8;7
58740;PMS7003;44512;53.046;18.604;2023-08-12T18:26:49;12;9;7
58740;PMS7003;44512;53.046;18.604;2023-08-12T18:37:17;10;10;9
58740;PMS7003;44512;53.046;18.604;2023-08-12T18:47:45;9;9;7
58740;PMS7003;44512;53.046;18.604;2023-08-12T18:58:14;8;7;6
58740;PMS7003;44512;53.046;18.604;2023-08-12T19:08:42;12;11;9
58740;PMS7003;44512;53.046;18.604;2023-08-12T19:19:10;11;10;8
58740;PMS7003;44512;53.046;18.604;2023-08-12T19:29:39;12;10;8
58740;PMS7003;44512;53.046;18.604;2023-08-12T19:40:07;9;8;7
58740;PMS7003;44512;53.046;18.604;2023-08-12T19:50:35;9;9;8
58740;PMS7003;44512;53.046;18.604;2023-08-12T20:01:04;10;9;8
58740;PMS7003;44512;53.046;18.604;2023-08-12T20:11:32;11;11;9
58740;PMS7003;44512;53.046;18.604;2023-08-12T20:22:00;10;10;8
58740;PMS7003;44512;53.046;18.604;2023-08-12T20:32:29;13;11;10
58740;PMS7003;44512;53.046;18.604;2023-08-12T20:42:57;11;11;9
58740;PMS7003;44512;53.046;18.604;2023-08-12T20:53:25;13;11;10
58740;PMS7003;44512;53.046;18.604;2023-08-12T21:03:54;11;10;9
58740;PMS7003;44512;53.046;18.604;2023-08-12T21:14:23;12;10;8
58740;PMS7003;44512;53.046;18.604;2023-08-12T21:24:50;12;12;9
58740;PMS7003;44512;53.046;18.604;2023-08-12T21:35:19;10;10;8
58740;PMS7003;44512;53.046;18.604;2023-08-12T21:45:47;10;10;9
58740;PMS7003;44512;53.046;18.604;2023-08-12T21:56:15;10;9;8
58740;PMS7003;44512;53.046;18.604;2023-08-12T22:06:44;10;9;8
58740;PMS7003;44512;53.046;18.604;2023-08-12T22:17:12;10;9;7
58740;PMS7003;44512;53.046;18.604;2023-08-12T22:27:40;12;10;9
58740;PMS7003;44512;53.046;18.604;2023-08-12T22:38:09;9;8;7
58740;PMS7003;44512;53.046;18.604;2023-08-12T22:48:37;7;7;6
58740;PMS7003;44512;53.046;18.604;2023-08-12T22:59:05;9;7;6
58740;PMS7003;44512;53.046;18.604;2023-08-12T23:09:34;9;8;7
58740;PMS7003;44512;53.046;18.604;2023-08-12T23:20:02;9;7;7
58740;PMS7003;44512;53.046;18.604;2023-08-12T23:30:30;9;8;8
58740;PMS7003;44512;53.046;18.604;2023-08-12T23:40:59;10;9;8
58740;PMS7003;44512;53.046;18.604;2023-08-12T23:51:27;8;8;6
